createdAt,value
2018-05-21T00:00:42.787Z,71.65
2018-05-21T00:03:10.189Z,71.03
2018-05-21T00:05:37.573Z,70.20
2018-05-21T00:08:04.958Z,70.04
2018-05-21T00:10:32.339Z,69.22
2018-05-21T00:12:59.736Z,69.78
2018-05-21T00:15:27.127Z,68.72
2018-05-21T00:17:54.517Z,68.44
2018-05-21T00:20:21.891Z,68.28
2018-05-21T00:22:49.295Z,67.98
2018-05-21T00:25:16.679Z,67.88
2018-05-21T00:27:44.072Z,67.91
2018-05-21T00:30:11.464Z,67.82
2018-05-21T00:32:38.871Z,67.91
2018-05-21T00:35:06.247Z,67.64
2018-05-21T00:37:33.630Z,68.42
2018-05-21T00:40:01.023Z,68.56
2018-05-21T00:42:28.413Z,69.11
2018-05-21T00:44:55.806Z,67.92
2018-05-21T00:47:23.179Z,68.42
2018-05-21T00:49:50.580Z,68.20
2018-05-21T00:52:17.971Z,68.60
2018-05-21T00:57:48.216Z,68.79
2018-05-21T01:00:15.619Z,69.13
2018-05-21T01:02:42.997Z,69.75
2018-05-21T01:05:10.392Z,70.45
2018-05-21T01:07:37.776Z,71.02
2018-05-21T01:10:05.171Z,69.21
2018-05-21T01:12:32.559Z,68.71
2018-05-21T01:14:59.945Z,68.63
2018-05-21T01:17:27.341Z,68.81
2018-05-21T01:19:54.739Z,68.96
2018-05-21T01:22:22.124Z,69.00
2018-05-21T01:24:49.535Z,69.27
2018-05-21T01:27:16.920Z,69.35
2018-05-21T01:29:44.332Z,69.15
2018-05-21T01:32:11.719Z,69.26
2018-05-21T01:34:39.122Z,69.13
2018-05-21T01:37:06.497Z,68.97
2018-05-21T01:39:33.891Z,68.79
2018-05-21T01:42:01.707Z,68.77
2018-05-21T01:44:29.101Z,68.25
2018-05-21T01:46:56.491Z,68.36
2018-05-21T01:49:23.885Z,68.21
2018-05-21T01:51:51.271Z,67.68
2018-05-21T01:54:18.681Z,67.65
2018-05-21T01:56:46.055Z,67.45
2018-05-21T01:59:13.450Z,67.67
2018-05-21T02:01:41.611Z,67.84
2018-05-21T02:04:09.019Z,67.70
2018-05-21T02:06:36.400Z,67.98
2018-05-21T02:09:03.812Z,67.75
2018-05-21T02:11:31.211Z,67.97
2018-05-21T02:13:58.595Z,67.61
2018-05-21T02:16:25.980Z,67.52
2018-05-21T02:18:53.374Z,67.70
2018-05-21T02:21:20.761Z,67.52
2018-05-21T02:23:48.149Z,67.65
2018-05-21T02:26:15.547Z,68.09
2018-05-21T02:28:42.937Z,68.06
2018-05-21T02:31:10.355Z,68.19
2018-05-21T02:33:37.738Z,68.59
2018-05-21T02:36:05.139Z,68.16
2018-05-21T02:38:32.523Z,68.77
2018-05-21T02:40:59.916Z,68.67
2018-05-21T02:43:27.305Z,68.92
2018-05-21T02:45:54.709Z,68.49
2018-05-21T02:48:22.091Z,68.77
2018-05-21T02:50:49.499Z,69.11
2018-05-21T02:53:16.876Z,68.76
2018-05-21T02:55:44.284Z,68.90
2018-05-21T02:58:11.664Z,68.66
2018-05-21T03:00:39.073Z,68.75
2018-05-21T03:03:06.449Z,68.62
2018-05-21T03:05:33.844Z,68.19
2018-05-21T03:08:01.235Z,67.33
2018-05-21T03:10:28.616Z,66.80
2018-05-21T03:12:56.000Z,65.58
2018-05-21T03:15:23.402Z,65.66
2018-05-21T03:17:50.780Z,65.49
2018-05-21T03:20:18.168Z,65.32
2018-05-21T03:22:45.570Z,65.60
2018-05-21T03:25:12.972Z,65.57
2018-05-21T03:27:40.369Z,65.93
2018-05-21T03:30:07.760Z,66.46
2018-05-21T03:32:35.165Z,67.19
2018-05-21T03:35:02.552Z,67.21
2018-05-21T03:37:29.943Z,67.16
2018-05-21T03:39:57.335Z,67.57
2018-05-21T03:42:24.725Z,67.62
2018-05-21T03:44:52.112Z,67.66
2018-05-21T03:47:19.512Z,68.34
2018-05-21T03:49:46.899Z,68.45
2018-05-21T03:52:14.305Z,69.08
2018-05-21T03:54:41.693Z,70.09
2018-05-21T03:57:09.089Z,70.66
2018-05-21T03:59:48.223Z,70.29
2018-05-21T04:02:27.495Z,70.15
2018-05-21T04:04:54.883Z,69.99
2018-05-21T04:07:22.273Z,69.82
2018-05-21T04:09:49.661Z,69.42
2018-05-21T04:12:17.375Z,69.44
2018-05-21T04:14:44.772Z,69.13
2018-05-21T04:17:12.174Z,69.28
2018-05-21T04:19:39.551Z,69.86
2018-05-21T04:22:06.965Z,70.00
2018-05-21T04:24:34.350Z,67.79
2018-05-21T04:27:01.758Z,66.08
2018-05-21T04:29:29.127Z,68.46
2018-05-21T04:31:56.525Z,70.10
2018-05-21T04:34:23.904Z,70.97
2018-05-21T04:36:51.300Z,71.74
2018-05-21T04:39:18.680Z,72.16
2018-05-21T04:41:46.067Z,72.25
2018-05-21T04:44:13.461Z,71.92
2018-05-21T04:46:40.849Z,72.32
2018-05-21T04:49:08.241Z,72.12
2018-05-21T04:51:35.638Z,72.32
2018-05-21T04:54:03.040Z,72.17
2018-05-21T04:56:30.445Z,71.80
2018-05-21T04:58:57.837Z,70.46
2018-05-21T05:01:25.219Z,70.10
2018-05-21T05:03:52.608Z,70.33
2018-05-21T05:06:20.001Z,70.65
2018-05-21T05:08:47.409Z,70.50
2018-05-21T05:11:14.787Z,70.13
2018-05-21T05:13:42.176Z,69.17
2018-05-21T05:16:09.561Z,67.32
2018-05-21T05:18:36.956Z,66.47
2018-05-21T05:21:04.420Z,61.60
2018-05-21T05:23:31.745Z,53.28
2018-05-21T05:25:59.123Z,49.84
2018-05-21T05:28:26.526Z,51.49
2018-05-21T05:30:53.896Z,52.68
2018-05-21T05:33:21.292Z,50.92
2018-05-21T05:35:48.676Z,49.20
2018-05-21T05:38:16.147Z,48.57
2018-05-21T05:40:43.464Z,48.07
2018-05-21T05:43:10.853Z,47.89
2018-05-21T05:45:38.252Z,49.90
2018-05-21T05:48:05.648Z,50.72
2018-05-21T05:50:33.042Z,48.23
2018-05-21T05:53:00.428Z,47.20
2018-05-21T05:55:27.823Z,47.03
2018-05-21T05:57:55.202Z,46.91
2018-05-21T06:00:22.610Z,46.34
2018-05-21T06:02:50.619Z,45.23
2018-05-21T06:05:18.022Z,45.74
2018-05-21T06:07:45.413Z,46.82
2018-05-21T06:10:12.829Z,49.47
2018-05-21T06:12:40.221Z,48.27
2018-05-21T06:15:07.625Z,47.14
2018-05-21T06:17:35.008Z,45.66
2018-05-21T06:20:02.395Z,43.88
2018-05-21T06:22:29.791Z,43.01
2018-05-21T06:24:57.191Z,42.21
2018-05-21T06:27:24.579Z,41.84
2018-05-21T06:29:51.976Z,43.51
2018-05-21T06:32:19.357Z,46.97
2018-05-21T06:34:46.752Z,50.27
2018-05-21T06:37:14.132Z,52.86
2018-05-21T06:39:41.534Z,52.05
2018-05-21T06:42:08.916Z,53.49
2018-05-21T06:44:36.322Z,52.67
2018-05-21T06:47:03.699Z,54.09
2018-05-21T06:49:31.087Z,55.79
2018-05-21T06:51:58.473Z,55.00
2018-05-21T06:54:25.892Z,55.71
2018-05-21T06:56:54.090Z,55.99
2018-05-21T06:59:21.477Z,56.90
2018-05-21T07:01:48.857Z,56.05
2018-05-21T07:04:16.251Z,55.97
2018-05-21T07:06:43.644Z,56.52
2018-05-21T07:09:11.331Z,55.32
2018-05-21T07:11:38.723Z,53.52
2018-05-21T07:14:06.096Z,56.34
2018-05-21T07:16:33.502Z,53.70
2018-05-21T07:19:00.878Z,53.92
2018-05-21T07:21:28.276Z,54.45
2018-05-21T07:23:55.686Z,55.99
2018-05-21T07:26:23.060Z,55.01
2018-05-21T07:28:50.439Z,55.00
2018-05-21T07:31:17.831Z,53.75
2018-05-21T07:33:45.219Z,55.85
2018-05-21T07:36:13.188Z,55.23
2018-05-21T07:38:40.587Z,54.96
2018-05-21T07:41:07.977Z,54.38
2018-05-21T07:43:35.364Z,53.51
2018-05-21T07:46:03.576Z,54.20
2018-05-21T07:48:30.960Z,55.12
2018-05-21T07:50:58.354Z,55.95
2018-05-21T07:53:25.920Z,56.90
2018-05-21T07:55:53.316Z,54.49
2018-05-21T07:58:20.710Z,53.86
2018-05-21T08:00:48.096Z,55.20
2018-05-21T08:03:15.809Z,54.86
2018-05-21T08:05:43.212Z,55.29
2018-05-21T08:08:11.249Z,55.47
2018-05-21T08:10:38.647Z,55.63
2018-05-21T08:13:06.034Z,54.01
2018-05-21T08:15:33.427Z,53.55
2018-05-21T08:18:00.831Z,55.87
2018-05-21T08:20:28.220Z,57.16
2018-05-21T08:22:55.620Z,56.84
2018-05-21T08:25:23.001Z,55.93
2018-05-21T08:27:50.399Z,54.06
2018-05-21T08:30:17.800Z,55.10
2018-05-21T08:32:45.222Z,56.90
2018-05-21T08:35:13.265Z,57.96
2018-05-21T08:37:40.665Z,58.24
2018-05-21T08:40:08.046Z,53.50
2018-05-21T08:42:35.505Z,56.95
2018-05-21T08:45:02.839Z,55.12
2018-05-21T08:47:30.243Z,55.58
2018-05-21T08:49:57.759Z,55.25
2018-05-21T08:52:25.227Z,58.20
2018-05-21T08:54:52.548Z,55.63
2018-05-21T08:57:20.520Z,53.70
2018-05-21T08:59:47.923Z,56.05
2018-05-21T09:02:15.323Z,53.81
2018-05-21T09:04:42.744Z,54.59
2018-05-21T09:07:10.109Z,54.27
2018-05-21T09:09:37.499Z,55.37
2018-05-21T09:12:04.895Z,57.16
2018-05-21T09:14:32.284Z,54.66
2018-05-21T09:16:59.690Z,53.65
2018-05-21T09:19:27.064Z,58.24
2018-05-21T09:21:54.477Z,55.83
2018-05-21T09:24:22.759Z,55.32
2018-05-21T09:26:50.162Z,52.37
2018-05-21T09:29:17.541Z,53.74
2018-05-21T09:31:44.946Z,51.81
2018-05-21T09:34:12.343Z,53.44
2018-05-21T09:36:39.748Z,53.61
2018-05-21T09:39:07.137Z,53.24
2018-05-21T09:41:34.909Z,53.04
2018-05-21T09:44:02.323Z,55.40
2018-05-21T09:46:29.813Z,53.77
2018-05-21T09:48:57.208Z,54.63
2018-05-21T09:51:24.611Z,53.00
2018-05-21T09:53:51.987Z,52.94
2018-05-21T09:56:19.701Z,52.72
2018-05-21T09:58:47.099Z,52.53
2018-05-21T10:01:14.488Z,51.97
2018-05-21T10:03:41.883Z,53.37
2018-05-21T10:06:09.275Z,53.98
2018-05-21T10:08:36.669Z,52.87
2018-05-21T10:11:04.061Z,53.23
2018-05-21T10:13:31.444Z,53.24
2018-05-21T10:15:58.843Z,54.05
2018-05-21T10:18:26.544Z,53.27
2018-05-21T10:20:53.933Z,52.27
2018-05-21T10:23:21.340Z,52.91
2018-05-21T10:25:48.720Z,52.75
2018-05-21T10:28:16.116Z,50.61
2018-05-21T10:30:43.512Z,51.21
2018-05-21T10:33:10.900Z,52.64
2018-05-21T10:35:38.308Z,51.33
2018-05-21T10:38:05.695Z,52.65
2018-05-21T10:40:33.101Z,53.11
2018-05-21T10:43:01.263Z,51.76
2018-05-21T10:45:28.687Z,50.60
2018-05-21T10:47:56.065Z,51.01
2018-05-21T10:50:23.472Z,53.11
2018-05-21T10:52:50.863Z,51.85
2018-05-21T10:55:18.256Z,50.66
2018-05-21T10:57:45.640Z,50.88
2018-05-21T11:00:13.043Z,50.54
2018-05-21T11:02:40.431Z,50.61
2018-05-21T11:05:07.832Z,50.23
2018-05-21T11:07:35.219Z,49.13
2018-05-21T11:10:03.672Z,49.04
2018-05-21T11:12:31.057Z,49.60
2018-05-21T11:14:58.458Z,51.91
2018-05-21T11:17:25.852Z,50.76
2018-05-21T11:19:53.247Z,48.79
2018-05-21T11:22:20.620Z,49.73
2018-05-21T11:24:48.016Z,54.28
2018-05-21T11:27:15.430Z,51.37
2018-05-21T11:29:42.811Z,47.40
2018-05-21T11:32:10.187Z,50.04
2018-05-21T11:34:37.592Z,49.41
2018-05-21T11:37:04.981Z,49.34
2018-05-21T11:39:32.417Z,50.56
2018-05-21T11:41:59.805Z,48.91
2018-05-21T11:44:27.201Z,47.96
2018-05-21T11:46:54.588Z,48.84
2018-05-21T11:49:21.975Z,56.29
2018-05-21T11:51:49.367Z,48.56
2018-05-21T11:54:16.756Z,49.87
2018-05-21T11:56:44.159Z,48.52
2018-05-21T11:59:11.556Z,49.37
2018-05-21T12:01:38.940Z,48.93
2018-05-21T12:04:06.330Z,51.99
2018-05-21T12:06:33.803Z,48.40
2018-05-21T12:09:01.184Z,47.16
2018-05-21T12:11:28.583Z,48.67
2018-05-21T12:13:55.956Z,47.85
2018-05-21T12:16:23.348Z,47.76
2018-05-21T12:18:50.738Z,47.55
2018-05-21T12:21:18.140Z,47.55
2018-05-21T12:23:45.524Z,47.25
2018-05-21T12:26:12.929Z,47.45
2018-05-21T12:28:40.371Z,47.16
2018-05-21T12:31:07.729Z,44.80
2018-05-21T12:33:35.120Z,51.23
2018-05-21T12:36:02.519Z,45.11
2018-05-21T12:38:29.911Z,45.00
2018-05-21T12:40:57.302Z,44.78
2018-05-21T12:43:24.686Z,45.20
2018-05-21T12:45:52.081Z,45.59
2018-05-21T12:48:19.463Z,43.17
2018-05-21T12:50:46.851Z,44.23
2018-05-21T12:53:14.244Z,45.07
2018-05-21T12:55:41.634Z,44.00
2018-05-21T12:58:09.033Z,44.96
2018-05-21T13:00:37.392Z,45.41
2018-05-21T13:03:04.793Z,45.43
2018-05-21T13:05:32.180Z,45.39
2018-05-21T13:07:59.585Z,49.35
2018-05-21T13:10:26.969Z,45.32
2018-05-21T13:12:54.366Z,47.21
2018-05-21T13:15:22.243Z,43.02
2018-05-21T13:17:49.629Z,42.75
2018-05-21T13:20:17.012Z,42.70
2018-05-21T13:22:44.409Z,42.59
2018-05-21T13:25:14.012Z,42.06
2018-05-21T13:27:41.780Z,42.26
2018-05-21T13:30:09.167Z,42.26
2018-05-21T13:32:36.580Z,41.43
2018-05-21T13:35:03.964Z,43.80
2018-05-21T13:37:31.356Z,43.14
2018-05-21T13:39:59.355Z,43.31
2018-05-21T13:42:26.757Z,42.88
2018-05-21T13:44:54.150Z,42.09
2018-05-21T13:47:21.545Z,43.97
2018-05-21T13:49:48.928Z,49.67
2018-05-21T13:52:16.954Z,45.17
2018-05-21T13:54:44.300Z,43.98
2018-05-21T13:57:11.708Z,44.03
2018-05-21T13:59:40.617Z,43.49
2018-05-21T14:02:07.991Z,43.35
2018-05-21T14:04:35.394Z,44.74
2018-05-21T14:07:02.885Z,46.06
2018-05-21T14:09:30.272Z,43.28
2018-05-21T14:11:58.548Z,43.90
2018-05-21T14:14:25.944Z,44.59
2018-05-21T14:16:53.328Z,44.91
2018-05-21T14:19:20.720Z,44.36
2018-05-21T14:21:48.104Z,44.19
2018-05-21T14:24:15.519Z,43.56
2018-05-21T14:26:42.896Z,47.54
2018-05-21T14:29:11.260Z,45.29
2018-05-21T14:31:38.651Z,46.00
2018-05-21T14:34:06.057Z,47.48
2018-05-21T14:36:33.439Z,47.68
2018-05-21T14:39:00.838Z,45.88
2018-05-21T14:41:28.218Z,46.61
2018-05-21T14:43:55.604Z,45.44
2018-05-21T14:46:22.996Z,49.53
2018-05-21T14:48:50.399Z,48.01
2018-05-21T14:51:17.803Z,47.65
2018-05-21T14:53:45.211Z,46.97
2018-05-21T14:56:12.583Z,46.45
2018-05-21T14:58:39.976Z,46.56
2018-05-21T15:01:07.376Z,47.37
2018-05-21T15:03:34.764Z,49.13
2018-05-21T15:06:02.715Z,48.12
2018-05-21T15:08:30.118Z,49.10
2018-05-21T15:10:57.508Z,49.27
2018-05-21T15:13:24.897Z,50.00
2018-05-21T15:15:52.312Z,50.44
2018-05-21T15:18:19.700Z,52.05
2018-05-21T15:20:47.084Z,49.47
2018-05-21T15:23:14.480Z,49.48
2018-05-21T15:25:41.869Z,50.90
2018-05-21T15:28:09.262Z,50.21
2018-05-21T15:30:36.673Z,49.86
2018-05-21T15:33:04.052Z,49.99
2018-05-21T15:35:31.452Z,51.63
2018-05-21T15:37:58.843Z,53.76
2018-05-21T15:40:26.245Z,53.57
2018-05-21T15:42:53.627Z,53.18
2018-05-21T15:45:21.037Z,52.51
2018-05-21T15:47:48.429Z,52.13
2018-05-21T15:50:15.872Z,52.67
2018-05-21T15:52:43.256Z,52.90
2018-05-21T15:55:10.647Z,52.64
2018-05-21T15:57:38.084Z,53.01
2018-05-21T16:00:05.432Z,52.60
2018-05-21T16:02:32.840Z,52.50
2018-05-21T16:05:00.286Z,52.94
2018-05-21T16:07:27.624Z,54.92
2018-05-21T16:09:55.803Z,55.75
2018-05-21T16:12:23.200Z,55.13
2018-05-21T16:14:50.591Z,56.07
2018-05-21T16:17:17.977Z,54.80
2018-05-21T16:19:46.149Z,54.50
2018-05-21T16:22:13.554Z,52.56
2018-05-21T16:24:40.938Z,53.13
2018-05-21T16:27:08.328Z,52.65
2018-05-21T16:29:35.732Z,52.13
2018-05-21T16:32:03.122Z,51.84
2018-05-21T16:34:30.507Z,50.02
2018-05-21T16:36:57.906Z,48.43
2018-05-21T16:39:25.294Z,46.89
2018-05-21T16:41:52.675Z,46.10
2018-05-21T16:44:20.087Z,47.30
2018-05-21T16:46:47.463Z,47.17
2018-05-21T16:49:14.860Z,47.44
2018-05-21T16:51:42.255Z,47.42
2018-05-21T16:54:09.638Z,47.22
2018-05-21T16:56:37.036Z,47.44
2018-05-21T16:59:04.424Z,48.86
2018-05-21T17:01:32.153Z,47.52
2018-05-21T17:03:59.545Z,48.31
2018-05-21T17:06:26.947Z,47.98
2018-05-21T17:08:54.333Z,46.51
2018-05-21T17:11:21.731Z,45.78
2018-05-21T17:13:49.126Z,45.95
2018-05-21T17:16:16.522Z,46.78
2018-05-21T17:18:43.912Z,45.49
2018-05-21T17:21:11.353Z,45.83
2018-05-21T17:23:38.719Z,48.43
2018-05-21T17:26:06.129Z,48.90
2018-05-21T17:28:33.527Z,51.79
2018-05-21T17:31:01.368Z,49.61
2018-05-21T17:33:28.772Z,50.65
2018-05-21T17:35:56.156Z,50.13
2018-05-21T17:38:23.549Z,51.22
2018-05-21T17:40:50.936Z,50.50
2018-05-21T17:43:19.323Z,51.42
2018-05-21T17:45:46.727Z,51.61
2018-05-21T17:48:14.121Z,52.08
2018-05-21T17:50:41.945Z,52.08
2018-05-21T17:53:15.346Z,51.77
2018-05-21T17:55:42.733Z,52.34
2018-05-21T17:58:10.125Z,52.64
2018-05-21T18:00:37.508Z,52.96
2018-05-21T18:03:05.780Z,53.88
2018-05-21T18:05:33.128Z,54.47
2018-05-21T18:08:00.528Z,54.06
2018-05-21T18:10:27.916Z,54.44
2018-05-21T18:12:55.312Z,56.00
2018-05-21T18:15:22.706Z,56.08
2018-05-21T18:17:50.183Z,55.94
2018-05-21T18:20:17.569Z,56.54
2018-05-21T18:22:44.976Z,57.51
2018-05-21T18:25:12.349Z,56.72
2018-05-21T18:27:39.764Z,56.34
2018-05-21T18:30:07.679Z,56.04
2018-05-21T18:32:35.013Z,56.59
2018-05-21T18:35:02.397Z,57.11
2018-05-21T18:37:29.798Z,56.86
2018-05-21T18:39:57.189Z,57.03
2018-05-21T18:42:24.734Z,57.50
2018-05-21T18:44:52.253Z,57.91
2018-05-21T18:47:20.348Z,58.36
2018-05-21T18:49:48.211Z,59.53
2018-05-21T18:52:15.596Z,59.84
2018-05-21T18:54:42.998Z,60.26
2018-05-21T18:57:10.388Z,61.02
2018-05-21T18:59:37.792Z,61.48
2018-05-21T19:02:05.175Z,63.10
2018-05-21T19:04:33.917Z,64.66
2018-05-21T19:07:01.306Z,64.75
2018-05-21T19:09:28.707Z,66.25
2018-05-21T19:11:56.095Z,66.97
2018-05-21T19:14:23.504Z,67.72
2018-05-21T19:16:51.720Z,68.67
2018-05-21T19:19:19.117Z,68.71
2018-05-21T19:21:46.535Z,68.67
2018-05-21T19:24:13.948Z,69.46
2018-05-21T19:26:41.321Z,69.45
2018-05-21T19:29:08.712Z,69.28
2018-05-21T19:31:36.097Z,68.82
2018-05-21T19:34:03.492Z,69.78
2018-05-21T19:36:30.880Z,70.53
2018-05-21T19:38:58.275Z,71.04
2018-05-21T19:41:25.675Z,71.51
2018-05-21T19:43:53.078Z,72.67
2018-05-21T19:46:20.467Z,72.65
2018-05-21T19:48:47.862Z,73.08
2018-05-21T19:51:15.256Z,70.71
2018-05-21T19:53:42.679Z,68.42
2018-05-21T19:56:10.133Z,68.68
2018-05-21T19:58:37.520Z,68.62
2018-05-21T20:01:05.461Z,67.61
2018-05-21T20:03:32.858Z,67.16
2018-05-21T20:06:00.259Z,64.40
2018-05-21T20:08:27.643Z,62.94
2018-05-21T20:10:55.052Z,61.97
2018-05-21T20:13:23.350Z,60.51
2018-05-21T20:15:50.804Z,58.80
2018-05-21T20:18:30.019Z,58.05
2018-05-21T20:20:57.410Z,58.74
2018-05-21T20:23:24.810Z,57.79
2018-05-21T20:25:52.210Z,57.73
2018-05-21T20:28:19.599Z,57.48
2018-05-21T20:30:46.988Z,55.43
2018-05-21T20:33:14.377Z,55.31
2018-05-21T20:35:41.780Z,54.83
2018-05-21T20:38:09.157Z,54.91
2018-05-21T20:40:36.555Z,55.25
2018-05-21T20:43:03.947Z,54.43
2018-05-21T20:45:31.337Z,54.23
2018-05-21T20:47:58.722Z,55.24
2018-05-21T20:50:26.117Z,54.89
2018-05-21T20:52:53.512Z,54.40
2018-05-21T20:55:26.431Z,55.34
2018-05-21T20:57:54.707Z,54.95
2018-05-21T21:00:22.107Z,55.03
2018-05-21T21:02:49.507Z,56.57
2018-05-21T21:05:16.891Z,57.66
2018-05-21T21:07:44.286Z,56.78
2018-05-21T21:10:11.683Z,57.31
2018-05-21T21:12:39.084Z,56.78
2018-05-21T21:15:06.468Z,56.60
2018-05-21T21:17:33.868Z,57.37
2018-05-21T21:20:01.254Z,56.33
2018-05-21T21:22:28.652Z,57.75
2018-05-21T21:24:56.035Z,58.32
2018-05-21T21:27:23.432Z,58.52
2018-05-21T21:29:50.827Z,58.80
2018-05-21T21:32:18.297Z,58.43
2018-05-21T21:34:45.635Z,58.50
2018-05-21T21:37:13.016Z,59.24
2018-05-21T21:39:40.400Z,60.10
2018-05-21T21:42:07.802Z,61.49
2018-05-21T21:44:35.202Z,61.34
2018-05-21T21:47:02.592Z,63.38
2018-05-21T21:49:29.972Z,63.06
2018-05-21T21:51:57.371Z,62.52
2018-05-21T21:54:24.759Z,61.95
2018-05-21T21:56:52.152Z,62.25
2018-05-21T22:02:39.478Z,61.55
2018-05-21T22:05:06.884Z,61.43
2018-05-21T22:07:34.275Z,61.71
2018-05-21T22:10:01.661Z,62.11
2018-05-21T22:12:29.064Z,62.00
2018-05-21T22:14:57.305Z,62.06
2018-05-21T22:17:24.697Z,62.41
2018-05-21T22:19:52.105Z,62.88
2018-05-21T22:22:19.520Z,64.42
2018-05-21T22:24:46.948Z,62.61
2018-05-21T22:27:14.344Z,63.86
2018-05-21T22:29:41.739Z,64.96
2018-05-21T22:32:09.145Z,65.78
2018-05-21T22:34:36.526Z,64.91
2018-05-21T22:37:03.905Z,65.79
2018-05-21T22:39:31.564Z,66.26
2018-05-21T22:41:58.932Z,65.46
2018-05-21T22:44:26.331Z,65.80
2018-05-21T22:46:53.720Z,65.72
2018-05-21T22:49:21.189Z,66.59
2018-05-21T22:51:48.564Z,66.70
2018-05-21T22:54:27.893Z,66.26
2018-05-21T22:56:55.269Z,66.99
2018-05-21T22:59:22.663Z,68.34
2018-05-21T23:01:50.052Z,68.84
2018-05-21T23:04:17.444Z,69.64
2018-05-21T23:06:44.835Z,70.74
2018-05-21T23:09:12.224Z,71.05
2018-05-21T23:11:39.616Z,71.67
2018-05-21T23:14:07.013Z,71.97
2018-05-21T23:16:34.403Z,72.05
2018-05-21T23:19:01.826Z,71.35
2018-05-21T23:21:29.545Z,71.99
2018-05-21T23:23:56.940Z,72.69
2018-05-21T23:26:24.334Z,72.78
2018-05-21T23:28:51.736Z,74.03
2018-05-21T23:31:19.124Z,74.87
2018-05-21T23:33:46.521Z,75.79
2018-05-21T23:36:13.915Z,76.52
2018-05-21T23:38:41.577Z,76.57
2018-05-21T23:41:08.971Z,77.25
2018-05-21T23:43:36.348Z,77.32
2018-05-21T23:46:03.740Z,77.66
2018-05-21T23:48:31.124Z,77.71
2018-05-21T23:50:58.589Z,77.87
2018-05-21T23:53:25.959Z,77.69
2018-05-21T23:55:53.354Z,76.74
2018-05-21T23:58:20.751Z,77.35
